Time;durP1;ratioP1;P1;durP2;ratioP2;P2;SDS_P1;SDS_P2;PMS_P1;PMS_P2;Temp;Humidity;BMP_temperature;BMP_pressure;BME280_temperature;BME280_humidity;BME280_pressure;Samples;Min_cycle;Max_cycle;Signal;HPM_P1;HPM_P2
2021/10/13 00:00:31;;;;;;;1.70;1.23;;;;;;;;;;6268952;22;20193;-90
2021/10/13 00:03:35;;;;;;;2.17;1.30;;;;;;;;;;6279290;22;20192;-90
2021/10/13 00:06:42;;;;;;;2.10;1.37;;;;;;;;;;6286274;22;20271;-91
2021/10/13 00:09:47;;;;;;;2.93;1.70;;;;;;;;;;6286868;22;20192;-90
2021/10/13 00:12:52;;;;;;;3.30;1.50;;;;;;;;;;6286197;22;20166;-89
2021/10/13 00:15:58;;;;;;;3.33;1.67;;;;;;;;;;6286604;22;20173;-89
2021/10/13 00:19:03;;;;;;;4.27;2.17;;;;;;;;;;6287702;22;20185;-90
2021/10/13 00:22:09;;;;;;;5.77;2.07;;;;;;;;;;6287514;22;20153;-90
2021/10/13 00:25:14;;;;;;;3.90;2.60;;;;;;;;;;6287241;22;20193;-90
2021/10/13 00:28:20;;;;;;;5.40;2.70;;;;;;;;;;6288553;22;20212;-89
2021/10/13 00:31:25;;;;;;;5.30;2.70;;;;;;;;;;6286998;22;20177;-90
2021/10/13 00:34:30;;;;;;;4.03;2.43;;;;;;;;;;6286531;22;20186;-91
2021/10/13 00:37:38;;;;;;;6.20;2.63;;;;;;;;;;6288323;22;20217;-89
2021/10/13 00:40:43;;;;;;;4.23;2.50;;;;;;;;;;6288335;22;20181;-91
2021/10/13 00:43:48;;;;;;;3.20;2.23;;;;;;;;;;6287718;22;20173;-89
2021/10/13 00:46:53;;;;;;;3.67;2.23;;;;;;;;;;6287523;22;20208;-89
2021/10/13 00:49:58;;;;;;;2.93;1.87;;;;;;;;;;6289685;22;20165;-90
2021/10/13 00:53:05;;;;;;;2.73;1.80;;;;;;;;;;6288524;22;20162;-89
2021/10/13 00:56:10;;;;;;;4.03;2.40;;;;;;;;;;6289747;22;20495;-90
2021/10/13 00:59:16;;;;;;;4.87;2.80;;;;;;;;;;6289004;22;20170;-88
2021/10/13 01:02:25;;;;;;;6.10;2.80;;;;;;;;;;6288820;22;20235;-90
2021/10/13 01:05:43;;;;;;;4.30;2.20;;;;;;;;;;6270730;22;20355;-89
2021/10/13 01:08:58;;;;;;;5.23;2.70;;;;;;;;;;6271762;22;20174;-90
2021/10/13 01:12:11;;;;;;;5.23;2.50;;;;;;;;;;6269643;22;20166;-89
2021/10/13 01:15:20;;;;;;;5.57;2.73;;;;;;;;;;6270825;22;20236;-90
2021/10/13 01:18:28;;;;;;;4.47;2.40;;;;;;;;;;6270967;22;20162;-90
2021/10/13 01:21:42;;;;;;;4.70;2.30;;;;;;;;;;6271752;22;20173;-90
2021/10/13 01:24:54;;;;;;;3.93;2.60;;;;;;;;;;6272592;22;20170;-91
2021/10/13 01:28:02;;;;;;;4.93;2.57;;;;;;;;;;6272375;22;20252;-90
2021/10/13 01:31:11;;;;;;;3.73;2.30;;;;;;;;;;6272602;22;20245;-89
2021/10/13 01:34:17;;;;;;;4.07;2.67;;;;;;;;;;6270849;22;20217;-89
2021/10/13 01:37:26;;;;;;;6.53;3.10;;;;;;;;;;6270626;22;20153;-89
2021/10/13 01:40:33;;;;;;;5.00;2.83;;;;;;;;;;6270130;22;20258;-89
2021/10/13 01:43:42;;;;;;;5.20;2.83;;;;;;;;;;6269945;22;20192;-89
2021/10/13 01:46:48;;;;;;;4.27;2.93;;;;;;;;;;6269114;22;20262;-89
2021/10/13 01:49:56;;;;;;;5.73;2.97;;;;;;;;;;6268340;22;20166;-90
2021/10/13 01:53:08;;;;;;;4.07;2.70;;;;;;;;;;6269624;22;20229;-87
2021/10/13 01:56:17;;;;;;;6.23;3.53;;;;;;;;;;6288937;22;20218;-90
2021/10/13 01:59:24;;;;;;;6.33;3.90;;;;;;;;;;6270480;22;20166;-90
2021/10/13 02:02:30;;;;;;;5.20;3.30;;;;;;;;;;6269915;22;20307;-90
2021/10/13 02:05:36;;;;;;;5.53;3.30;;;;;;;;;;6269516;22;20181;-90
2021/10/13 02:08:42;;;;;;;5.83;3.50;;;;;;;;;;6269644;22;20227;-90
2021/10/13 02:11:47;;;;;;;8.27;4.87;;;;;;;;;;6270393;22;20161;-90
2021/10/13 02:14:55;;;;;;;8.50;4.63;;;;;;;;;;6270140;22;20166;-89
2021/10/13 02:18:01;;;;;;;6.70;4.57;;;;;;;;;;6271683;22;20223;-90
2021/10/13 02:21:07;;;;;;;8.17;4.97;;;;;;;;;;6270871;22;20306;-91
2021/10/13 02:24:12;;;;;;;9.53;4.90;;;;;;;;;;6269309;22;20351;-89
2021/10/13 02:27:20;;;;;;;10.30;5.20;;;;;;;;;;6269816;22;20185;-90
2021/10/13 02:30:27;;;;;;;8.37;5.67;;;;;;;;;;6269032;22;20174;-90
2021/10/13 02:33:33;;;;;;;8.37;5.40;;;;;;;;;;6268976;22;20168;-90
2021/10/13 02:36:38;;;;;;;8.90;5.60;;;;;;;;;;6267595;22;20170;-91
2021/10/13 02:39:43;;;;;;;8.37;5.13;;;;;;;;;;6268801;22;20196;-90
2021/10/13 02:42:52;;;;;;;9.33;5.67;;;;;;;;;;6268474;22;20165;-90
2021/10/13 02:46:01;;;;;;;8.87;5.53;;;;;;;;;;6271119;22;20236;-90
2021/10/13 02:49:11;;;;;;;8.73;5.53;;;;;;;;;;6270469;22;20170;-91
2021/10/13 02:52:20;;;;;;;8.83;5.77;;;;;;;;;;6270439;22;20296;-91
2021/10/13 02:55:27;;;;;;;10.43;6.00;;;;;;;;;;6269740;22;20181;-89
2021/10/13 02:58:37;;;;;;;9.93;5.57;;;;;;;;;;6268617;22;20173;-89
2021/10/13 03:01:45;;;;;;;9.17;5.53;;;;;;;;;;6271844;22;20238;-91
2021/10/13 03:04:52;;;;;;;7.63;4.73;;;;;;;;;;6271252;22;20158;-89
2021/10/13 03:08:01;;;;;;;9.20;5.53;;;;;;;;;;6271707;22;20221;-90
2021/10/13 03:11:07;;;;;;;7.33;5.17;;;;;;;;;;6270959;22;20166;-89
2021/10/13 03:14:12;;;;;;;8.83;5.30;;;;;;;;;;6271421;22;20224;-91
2021/10/13 03:17:20;;;;;;;9.00;5.90;;;;;;;;;;6270308;22;20166;-90
2021/10/13 03:20:25;;;;;;;9.33;6.13;;;;;;;;;;6271542;22;20177;-88
2021/10/13 03:23:30;;;;;;;11.27;6.00;;;;;;;;;;6271603;22;20181;-90
2021/10/13 03:26:35;;;;;;;10.10;6.23;;;;;;;;;;6270982;22;20196;-90
2021/10/13 03:29:41;;;;;;;9.50;6.20;;;;;;;;;;6270713;22;20232;-90
2021/10/13 03:32:48;;;;;;;13.67;7.27;;;;;;;;;;6269501;22;20265;-90
2021/10/13 03:35:54;;;;;;;10.37;6.43;;;;;;;;;;6269124;22;20169;-91
2021/10/13 03:39:06;;;;;;;13.10;6.70;;;;;;;;;;6270088;22;20189;-89
2021/10/13 03:42:11;;;;;;;11.30;6.97;;;;;;;;;;6273120;22;20610;-89
2021/10/13 03:45:17;;;;;;;12.57;6.73;;;;;;;;;;6269259;22;20247;-89
2021/10/13 03:48:27;;;;;;;12.77;7.53;;;;;;;;;;6271504;22;20158;-90
2021/10/13 03:51:32;;;;;;;13.40;8.07;;;;;;;;;;6270672;22;20238;-91
2021/10/13 03:54:37;;;;;;;12.67;8.67;;;;;;;;;;6272338;22;20161;-90
2021/10/13 03:57:48;;;;;;;12.87;8.53;;;;;;;;;;6270343;22;20186;-90
2021/10/13 04:01:20;;;;;;;14.83;8.97;;;;;;;;;;6269872;22;20165;-90
2021/10/13 04:04:27;;;;;;;14.80;8.37;;;;;;;;;;6270065;22;20161;-90
2021/10/13 04:07:33;;;;;;;18.00;9.77;;;;;;;;;;6270507;22;20198;-90
2021/10/13 04:10:38;;;;;;;18.63;9.57;;;;;;;;;;6270803;22;20224;-90
2021/10/13 04:13:44;;;;;;;17.67;9.70;;;;;;;;;;6272174;22;20216;-90
2021/10/13 04:16:49;;;;;;;20.97;11.27;;;;;;;;;;6271939;22;20173;-91
2021/10/13 04:19:56;;;;;;;16.63;10.53;;;;;;;;;;6271404;22;20492;-89
2021/10/13 04:23:01;;;;;;;19.13;10.73;;;;;;;;;;6271571;22;20177;-90
2021/10/13 04:26:06;;;;;;;18.77;11.30;;;;;;;;;;6288931;22;20185;-90
2021/10/13 04:29:12;;;;;;;18.17;10.47;;;;;;;;;;6271942;22;20161;-89
2021/10/13 04:32:20;;;;;;;20.27;11.27;;;;;;;;;;6271816;22;20170;-89
2021/10/13 04:35:27;;;;;;;18.90;11.50;;;;;;;;;;6270658;22;20166;-90
2021/10/13 04:38:32;;;;;;;21.50;11.80;;;;;;;;;;6270329;22;20169;-90
2021/10/13 04:41:37;;;;;;;18.43;10.70;;;;;;;;;;6270690;22;20259;-89
2021/10/13 04:44:42;;;;;;;23.70;12.63;;;;;;;;;;6271947;22;20173;-89
2021/10/13 04:47:47;;;;;;;22.57;11.43;;;;;;;;;;6273691;22;20514;-89
2021/10/13 04:50:54;;;;;;;22.27;11.23;;;;;;;;;;6290686;22;20273;-90
2021/10/13 04:53:59;;;;;;;22.70;12.40;;;;;;;;;;6288422;22;20324;-90
2021/10/13 04:57:05;;;;;;;22.03;11.17;;;;;;;;;;6288813;22;20158;-90
2021/10/13 05:00:11;;;;;;;19.77;10.40;;;;;;;;;;6270995;22;20182;-90
2021/10/13 05:03:17;;;;;;;22.27;11.33;;;;;;;;;;6278832;22;20217;-90
2021/10/13 05:06:24;;;;;;;22.37;11.03;;;;;;;;;;6290169;22;20181;-89
2021/10/13 05:09:29;;;;;;;21.50;10.83;;;;;;;;;;6287035;22;20165;-90
2021/10/13 05:12:34;;;;;;;23.57;11.87;;;;;;;;;;6287732;22;20249;-90
2021/10/13 05:15:39;;;;;;;24.00;11.97;;;;;;;;;;6289384;22;20200;-90
2021/10/13 05:18:44;;;;;;;23.67;12.37;;;;;;;;;;6289691;22;20345;-89
2021/10/13 05:21:51;;;;;;;23.67;11.90;;;;;;;;;;6290497;22;20182;-90
2021/10/13 05:24:57;;;;;;;25.33;11.87;;;;;;;;;;6292692;22;20169;-89
2021/10/13 05:28:02;;;;;;;24.40;12.73;;;;;;;;;;6293202;22;20237;-89
2021/10/13 05:31:08;;;;;;;25.27;12.00;;;;;;;;;;6291523;22;20162;-90
2021/10/13 05:34:14;;;;;;;25.97;12.60;;;;;;;;;;6294308;22;20185;-91
2021/10/13 05:37:20;;;;;;;21.40;11.83;;;;;;;;;;6292826;22;20249;-91
2021/10/13 05:43:44;;;;;;;22.27;12.10;;;;;;;;;;6291603;22;20184;-90
2021/10/13 05:46:50;;;;;;;24.97;11.60;;;;;;;;;;6293677;22;20180;-91
2021/10/13 05:49:58;;;;;;;22.83;11.67;;;;;;;;;;6290601;22;20208;-91
2021/10/13 05:53:05;;;;;;;20.87;10.97;;;;;;;;;;6291360;22;20652;-90
2021/10/13 05:56:11;;;;;;;26.73;13.20;;;;;;;;;;6291288;22;20214;-91
2021/10/13 05:59:19;;;;;;;24.63;13.33;;;;;;;;;;6291074;22;20173;-89
2021/10/13 06:02:25;;;;;;;27.20;13.03;;;;;;;;;;6290485;22;20197;-91
2021/10/13 06:05:31;;;;;;;25.43;12.27;;;;;;;;;;6272175;22;20508;-90
2021/10/13 06:08:37;;;;;;;21.77;11.50;;;;;;;;;;6273785;22;20222;-91
2021/10/13 06:11:43;;;;;;;22.73;11.60;;;;;;;;;;6271699;22;20170;-91
2021/10/13 06:14:48;;;;;;;22.93;12.20;;;;;;;;;;6271930;22;20501;-92
2021/10/13 06:17:54;;;;;;;22.30;11.80;;;;;;;;;;6273564;22;20240;-91
2021/10/13 06:20:58;;;;;;;23.53;12.40;;;;;;;;;;6276028;22;20189;-91
2021/10/13 06:24:05;;;;;;;23.73;11.93;;;;;;;;;;6270486;22;20162;-91
2021/10/13 06:27:11;;;;;;;29.70;12.90;;;;;;;;;;6272083;22;20236;-92
2021/10/13 06:30:16;;;;;;;22.83;11.97;;;;;;;;;;6275757;22;20239;-91
2021/10/13 06:33:36;;;;;;;24.90;13.03;;;;;;;;;;6282467;22;20208;-91
2021/10/13 22:20:14;;;;;;;54.00;9.00;;;;;;;;;;6262437;22;20557;-90
2021/10/13 22:23:20;;;;;;;45.30;7.83;;;;;;;;;;6274399;22;20169;-91
2021/10/13 22:26:25;;;;;;;58.90;8.00;;;;;;;;;;6272873;22;20173;-90
2021/10/13 22:29:31;;;;;;;59.83;8.60;;;;;;;;;;6273374;22;20165;-89
2021/10/13 22:32:37;;;;;;;86.93;9.67;;;;;;;;;;6274651;22;20169;-88
2021/10/13 22:35:44;;;;;;;94.77;9.10;;;;;;;;;;6275610;22;20249;-90
2021/10/13 22:38:50;;;;;;;44.30;10.30;;;;;;;;;;6275191;22;20210;-89
2021/10/13 22:41:55;;;;;;;78.63;9.60;;;;;;;;;;6274938;22;20170;-90
2021/10/13 22:45:01;;;;;;;89.00;8.90;;;;;;;;;;6274213;22;20213;-90
2021/10/13 22:48:06;;;;;;;26.23;7.37;;;;;;;;;;6274258;22;20326;-89
2021/10/13 22:51:15;;;;;;;37.40;7.00;;;;;;;;;;6265880;22;20188;-89
2021/10/13 22:54:25;;;;;;;33.87;7.80;;;;;;;;;;6273157;22;20216;-89
2021/10/13 22:57:33;;;;;;;39.93;7.10;;;;;;;;;;6273531;22;20292;-89
2021/10/13 23:00:38;;;;;;;53.13;7.73;;;;;;;;;;6273206;22;20166;-91
2021/10/13 23:03:43;;;;;;;27.67;5.67;;;;;;;;;;6272668;22;20161;-90
2021/10/13 23:06:51;;;;;;;19.67;5.43;;;;;;;;;;6272517;22;20216;-90
2021/10/13 23:09:57;;;;;;;28.80;6.60;;;;;;;;;;6273358;22;20169;-89
2021/10/13 23:13:03;;;;;;;110.10;9.27;;;;;;;;;;6275330;22;20598;-90
2021/10/13 23:16:09;;;;;;;36.20;6.77;;;;;;;;;;6274026;22;20190;-91
2021/10/13 23:19:14;;;;;;;78.80;6.77;;;;;;;;;;6273589;22;20617;-89
2021/10/13 23:22:21;;;;;;;58.97;8.50;;;;;;;;;;6275096;22;20170;-89
2021/10/13 23:25:26;;;;;;;21.90;6.60;;;;;;;;;;6273526;22;20162;-88
2021/10/13 23:28:31;;;;;;;37.43;7.03;;;;;;;;;;6274251;22;20224;-88
2021/10/13 23:31:37;;;;;;;34.07;6.57;;;;;;;;;;6274183;22;20165;-89
2021/10/13 23:34:41;;;;;;;43.63;7.20;;;;;;;;;;6273699;22;20166;-89
2021/10/13 23:37:48;;;;;;;41.47;6.67;;;;;;;;;;6272960;22;20173;-91
2021/10/13 23:40:54;;;;;;;28.97;7.07;;;;;;;;;;6273832;22;20625;-90
2021/10/13 23:44:00;;;;;;;26.83;6.87;;;;;;;;;;6276123;22;20165;-90
2021/10/13 23:47:06;;;;;;;19.27;7.17;;;;;;;;;;6274141;22;20166;-89
2021/10/13 23:50:11;;;;;;;21.37;6.40;;;;;;;;;;6273484;22;20186;-90
2021/10/13 23:53:18;;;;;;;18.77;7.00;;;;;;;;;;6274676;22;20181;-91
2021/10/13 23:56:24;;;;;;;27.43;6.70;;;;;;;;;;6275119;22;20228;-88
2021/10/13 23:59:30;;;;;;;27.77;7.07;;;;;;;;;;6274481;22;20170;-90
